Time;durP1;ratioP1;P1;durP2;ratioP2;P2;SDS_P1;SDS_P2;PMS_P1;PMS_P2;Temp;Humidity;BMP_temperature;BMP_pressure;BME280_temperature;BME280_humidity;BME280_pressure;Samples;Min_cycle;Max_cycle;Signal;HPM_P1;HPM_P2
2022/11/30 00:01:28;;;;;;;;;;;7.90;99.90;;;;;;4962005;28;20006;-63
2022/11/30 00:03:56;;;;;;;;;;;8.00;99.90;;;;;;4961350;28;19965;-63
2022/11/30 00:06:23;;;;;;;;;;;8.10;99.90;;;;;;4954693;28;19934;-63
2022/11/30 00:08:49;;;;;;;;;;;8.00;99.90;;;;;;4960739;28;19910;-63
2022/11/30 00:11:16;;;;;;;;;;;8.10;99.90;;;;;;4952150;28;19988;-63
2022/11/30 00:13:42;;;;;;;;;;;8.00;99.90;;;;;;4964284;28;19964;-63
2022/11/30 00:16:08;;;;;;;;;;;8.00;99.90;;;;;;4964714;28;19926;-63
2022/11/30 00:18:34;;;;;;;;;;;8.10;99.90;;;;;;4961608;28;19925;-63
2022/11/30 00:21:00;;;;;;;;;;;8.20;99.90;;;;;;4960371;28;19919;-63
2022/11/30 00:23:30;;;;;;;;;;;8.30;99.90;;;;;;4972057;28;19910;-63
2022/11/30 00:25:58;;;;;;;;;;;8.30;99.90;;;;;;4956159;28;19918;-63
2022/11/30 00:28:24;;;;;;;;;;;8.30;99.90;;;;;;4960196;28;19922;-63
2022/11/30 00:30:59;;;;;;;;;;;8.30;99.90;;;;;;4961284;28;19921;-63
2022/11/30 00:33:24;;;;;;;;;;;8.30;99.90;;;;;;4965698;28;19926;-63
2022/11/30 00:36:00;;;;;;;;;;;7.90;99.90;;;;;;4965945;28;19914;-63
2022/11/30 00:38:26;;;;;;;;;;;8.00;99.90;;;;;;4971569;28;19937;-63
2022/11/30 00:40:51;;;;;;;;;;;8.10;99.90;;;;;;4976398;28;20349;-63
2022/11/30 00:43:17;;;;;;;;;;;8.00;99.90;;;;;;4965202;28;20350;-63
2022/11/30 00:45:42;;;;;;;;;;;7.90;99.90;;;;;;4972135;28;19914;-63
2022/11/30 00:48:08;;;;;;;;;;;7.90;99.90;;;;;;4953626;28;19921;-63
2022/11/30 00:50:33;;;;;;;;;;;7.90;99.90;;;;;;4958288;28;19910;-63
2022/11/30 00:52:59;;;;;;;;;;;8.00;99.90;;;;;;4968180;28;19918;-63
2022/11/30 00:55:26;;;;;;;;;;;8.00;99.90;;;;;;4963688;28;19918;-63
2022/11/30 00:57:51;;;;;;;;;;;8.00;99.90;;;;;;4966539;28;19957;-63
2022/11/30 01:00:17;;;;;;;;;;;7.90;99.90;;;;;;4957131;28;19941;-63
2022/11/30 01:02:42;;;;;;;;;;;8.00;99.90;;;;;;4967536;28;19917;-63
2022/11/30 01:05:08;;;;;;;;;;;7.90;99.90;;;;;;4979092;28;19918;-63
2022/11/30 01:07:33;;;;;;;;;;;8.00;99.90;;;;;;4966889;28;19922;-63
2022/11/30 01:09:59;;;;;;;;;;;7.90;99.90;;;;;;4957998;28;19950;-63
2022/11/30 01:12:24;;;;;;;;;;;8.00;99.90;;;;;;4956494;28;19914;-63
2022/11/30 01:14:50;;;;;;;;;;;8.10;99.90;;;;;;4964474;28;20360;-63
2022/11/30 01:17:15;;;;;;;;;;;8.10;99.90;;;;;;4960668;28;19918;-63
2022/11/30 01:19:41;;;;;;;;;;;8.10;99.90;;;;;;4957720;28;19910;-63
2022/11/30 01:22:06;;;;;;;;;;;8.00;99.90;;;;;;4955747;28;19922;-63
2022/11/30 01:24:31;;;;;;;;;;;8.10;99.90;;;;;;4966642;28;19918;-63
2022/11/30 01:26:57;;;;;;;;;;;8.00;99.90;;;;;;4955709;28;19925;-63
2022/11/30 01:29:22;;;;;;;;;;;8.10;99.90;;;;;;4960699;28;20009;-63
2022/11/30 01:31:48;;;;;;;;;;;8.10;99.90;;;;;;4959993;28;19917;-63
2022/11/30 01:34:13;;;;;;;;;;;8.20;99.90;;;;;;4961800;28;19972;-63
2022/11/30 01:36:39;;;;;;;;;;;8.10;99.90;;;;;;4962451;28;19937;-63
2022/11/30 01:39:06;;;;;;;;;;;7.90;99.90;;;;;;4956342;28;19936;-63
2022/11/30 01:41:31;;;;;;;;;;;7.90;99.90;;;;;;4958698;28;20573;-63
2022/11/30 01:44:17;;;;;;;;;;;7.90;99.90;;;;;;4961232;28;19914;-63
2022/11/30 01:46:45;;;;;;;;;;;8.00;99.90;;;;;;4956838;28;19937;-63
2022/11/30 01:49:20;;;;;;;;;;;7.90;99.90;;;;;;4958369;28;20274;-63
2022/11/30 01:51:55;;;;;;;;;;;7.90;99.90;;;;;;4962952;28;19921;-63
2022/11/30 01:54:22;;;;;;;;;;;7.80;99.90;;;;;;4951922;28;19914;-63
2022/11/30 01:56:51;;;;;;;;;;;7.80;99.90;;;;;;4953223;28;20401;-63
2022/11/30 01:59:18;;;;;;;;;;;7.80;99.90;;;;;;4953422;28;19921;-63
2022/11/30 02:01:44;;;;;;;;;;;7.70;99.90;;;;;;4962041;28;20356;-63
2022/11/30 02:04:10;;;;;;;;;;;7.70;99.90;;;;;;4958133;28;19910;-63
2022/11/30 02:06:35;;;;;;;;;;;7.70;99.90;;;;;;4962950;28;19933;-63
2022/11/30 02:09:01;;;;;;;;;;;7.70;99.90;;;;;;4967337;28;19910;-63
2022/11/30 02:11:27;;;;;;;;;;;7.70;99.90;;;;;;4960657;28;20314;-63
2022/11/30 02:14:13;;;;;;;;;;;7.60;99.90;;;;;;4962297;28;19914;-63
2022/11/30 02:16:38;;;;;;;;;;;7.50;99.90;;;;;;4959832;28;20000;-63
2022/11/30 02:19:03;;;;;;;;;;;7.70;99.90;;;;;;4956236;28;19988;-63
2022/11/30 02:21:48;;;;;;;;;;;7.70;99.90;;;;;;4962965;28;19965;-63
2022/11/30 02:24:21;;;;;;;;;;;7.50;99.90;;;;;;4963806;28;19917;-63
2022/11/30 02:26:49;;;;;;;;;;;7.40;99.90;;;;;;4967612;28;20008;-63
2022/11/30 02:29:28;;;;;;;;;;;7.40;99.90;;;;;;4962185;28;19917;-63
2022/11/30 02:32:03;;;;;;;;;;;7.40;99.90;;;;;;4962372;28;19933;-63
2022/11/30 02:34:30;;;;;;;;;;;7.40;99.90;;;;;;4960550;28;19911;-63
2022/11/30 02:36:57;;;;;;;;;;;7.40;99.90;;;;;;4964152;28;19914;-63
2022/11/30 02:39:22;;;;;;;;;;;7.40;99.90;;;;;;4968422;28;19968;-62
2022/11/30 02:41:48;;;;;;;;;;;7.40;99.90;;;;;;4966259;28;19922;-62
2022/11/30 02:44:14;;;;;;;;;;;7.50;99.90;;;;;;4957865;28;20301;-62
2022/11/30 02:46:53;;;;;;;;;;;7.50;99.90;;;;;;4964694;28;19932;-62
2022/11/30 02:49:18;;;;;;;;;;;7.30;99.90;;;;;;4966781;28;19985;-62
2022/11/30 02:51:45;;;;;;;;;;;7.40;99.90;;;;;;4965333;28;20318;-62
2022/11/30 02:54:10;;;;;;;;;;;7.30;99.90;;;;;;4957815;28;19914;-62
2022/11/30 02:56:36;;;;;;;;;;;7.40;99.90;;;;;;4962337;28;20285;-62
2022/11/30 02:59:01;;;;;;;;;;;7.60;99.90;;;;;;4953810;28;19914;-62
2022/11/30 03:01:27;;;;;;;;;;;7.40;99.90;;;;;;4962162;28;19941;-63
2022/11/30 03:03:52;;;;;;;;;;;7.50;99.90;;;;;;4964843;28;19921;-63
2022/11/30 03:06:18;;;;;;;;;;;7.40;99.90;;;;;;4965114;28;19932;-62
2022/11/30 03:08:43;;;;;;;;;;;7.40;99.90;;;;;;4959947;28;19972;-62
2022/11/30 03:11:09;;;;;;;;;;;7.50;99.90;;;;;;4966154;28;19921;-63
2022/11/30 03:13:34;;;;;;;;;;;7.30;99.90;;;;;;4964322;28;20262;-63
2022/11/30 03:16:10;;;;;;;;;;;7.50;99.90;;;;;;4966649;28;19938;-63
2022/11/30 03:18:36;;;;;;;;;;;7.50;99.90;;;;;;4968829;28;19910;-63
2022/11/30 03:21:05;;;;;;;;;;;7.30;99.90;;;;;;4959668;28;19918;-63
2022/11/30 03:23:31;;;;;;;;;;;7.50;99.90;;;;;;4961877;28;20384;-63
2022/11/30 03:25:57;;;;;;;;;;;7.60;99.90;;;;;;4965148;28;19915;-63
2022/11/30 03:28:23;;;;;;;;;;;7.50;99.90;;;;;;4967288;28;19969;-63
2022/11/30 03:30:49;;;;;;;;;;;7.30;99.90;;;;;;4965744;28;19914;-63
2022/11/30 03:33:14;;;;;;;;;;;7.20;99.90;;;;;;4967702;28;19922;-61
2022/11/30 03:35:39;;;;;;;;;;;7.30;99.90;;;;;;4959430;28;19917;-62
2022/11/30 03:38:05;;;;;;;;;;;7.60;99.90;;;;;;4966467;28;20263;-62
2022/11/30 03:40:30;;;;;;;;;;;7.40;99.90;;;;;;4961572;28;19919;-62
2022/11/30 03:42:56;;;;;;;;;;;7.30;99.90;;;;;;4960195;28;19926;-62
2022/11/30 03:45:21;;;;;;;;;;;7.40;99.90;;;;;;4959499;28;19952;-62
2022/11/30 03:47:47;;;;;;;;;;;7.30;99.90;;;;;;4963625;28;19918;-62
2022/11/30 03:50:12;;;;;;;;;;;7.20;99.90;;;;;;4955709;28;19957;-62
2022/11/30 03:52:38;;;;;;;;;;;7.30;99.90;;;;;;4964085;28;19918;-62
2022/11/30 03:55:04;;;;;;;;;;;7.20;99.90;;;;;;4964016;28;20008;-62
2022/11/30 03:57:29;;;;;;;;;;;7.00;99.90;;;;;;4956569;28;19910;-62
2022/11/30 03:59:55;;;;;;;;;;;7.10;99.90;;;;;;4965459;28;20328;-62
2022/11/30 04:02:20;;;;;;;;;;;7.00;99.90;;;;;;4955865;28;19985;-62
2022/11/30 04:04:46;;;;;;;;;;;7.00;99.90;;;;;;4962890;28;19950;-62
2022/11/30 04:07:11;;;;;;;;;;;6.90;99.90;;;;;;4956757;28;19949;-62
2022/11/30 04:09:37;;;;;;;;;;;7.00;99.90;;;;;;4969259;28;19910;-62
2022/11/30 04:12:02;;;;;;;;;;;7.00;99.90;;;;;;4964284;28;20365;-62
2022/11/30 04:14:27;;;;;;;;;;;7.00;99.90;;;;;;4960064;28;19916;-62
2022/11/30 04:16:53;;;;;;;;;;;6.90;99.90;;;;;;4964232;28;19930;-62
2022/11/30 04:19:18;;;;;;;;;;;7.00;99.90;;;;;;4955658;28;20382;-62
2022/11/30 04:21:44;;;;;;;;;;;6.90;99.90;;;;;;4975730;28;19925;-63
2022/11/30 04:24:09;;;;;;;;;;;7.00;99.90;;;;;;4977527;28;19910;-62
2022/11/30 04:26:35;;;;;;;;;;;7.00;99.90;;;;;;4960046;28;20384;-62
2022/11/30 04:29:00;;;;;;;;;;;6.90;99.90;;;;;;4969169;28;19925;-62
2022/11/30 04:31:26;;;;;;;;;;;7.10;99.90;;;;;;4948142;28;19914;-62
2022/11/30 04:33:52;;;;;;;;;;;7.20;99.90;;;;;;4959202;28;19917;-62
2022/11/30 04:36:18;;;;;;;;;;;7.20;99.90;;;;;;4964625;28;19910;-62
2022/11/30 04:38:44;;;;;;;;;;;7.00;99.90;;;;;;4952788;28;20283;-63
2022/11/30 04:41:10;;;;;;;;;;;7.10;99.90;;;;;;4958170;28;19925;-63
2022/11/30 04:43:36;;;;;;;;;;;7.20;99.90;;;;;;4960482;28;19910;-63
2022/11/30 04:46:01;;;;;;;;;;;7.00;99.90;;;;;;4964940;28;19914;-63
2022/11/30 04:48:27;;;;;;;;;;;7.00;99.90;;;;;;4959868;28;19920;-63
2022/11/30 04:50:52;;;;;;;;;;;7.00;99.90;;;;;;4959231;28;19917;-63
2022/11/30 04:53:18;;;;;;;;;;;7.10;99.90;;;;;;4976710;28;19921;-63
2022/11/30 04:55:43;;;;;;;;;;;7.00;99.90;;;;;;4957516;28;20336;-63
2022/11/30 04:58:09;;;;;;;;;;;7.10;99.90;;;;;;4963479;28;19914;-63
2022/11/30 05:00:34;;;;;;;;;;;7.10;99.90;;;;;;4960706;28;19926;-62
2022/11/30 05:03:00;;;;;;;;;;;7.10;99.90;;;;;;4955085;28;20348;-63
2022/11/30 05:05:25;;;;;;;;;;;7.20;99.90;;;;;;4965342;28;19910;-63
2022/11/30 05:07:55;;;;;;;;;;;7.20;99.90;;;;;;4963784;28;19914;-63
2022/11/30 05:10:21;;;;;;;;;;;7.30;99.90;;;;;;4962852;28;20000;-63
2022/11/30 05:12:46;;;;;;;;;;;7.20;99.90;;;;;;4956931;28;20338;-63
2022/11/30 05:15:12;;;;;;;;;;;7.10;99.90;;;;;;4964576;28;19914;-63
2022/11/30 05:17:38;;;;;;;;;;;7.00;99.90;;;;;;4956330;28;19949;-64
2022/11/30 05:20:03;;;;;;;;;;;7.00;99.90;;;;;;4975410;28;20290;-63
2022/11/30 05:22:29;;;;;;;;;;;7.00;99.90;;;;;;4954483;28;19918;-63
2022/11/30 05:24:54;;;;;;;;;;;7.10;99.90;;;;;;4968131;28;19914;-62
2022/11/30 05:27:20;;;;;;;;;;;7.00;99.90;;;;;;4956148;28;20357;-62
2022/11/30 05:29:45;;;;;;;;;;;7.10;99.90;;;;;;4956503;28;19918;-63
2022/11/30 05:32:11;;;;;;;;;;;6.90;99.90;;;;;;4959583;28;19934;-62
2022/11/30 05:34:36;;;;;;;;;;;7.00;99.90;;;;;;4955400;28;19921;-62
2022/11/30 05:37:02;;;;;;;;;;;7.00;99.90;;;;;;4950928;28;19910;-62
2022/11/30 05:39:27;;;;;;;;;;;7.00;99.90;;;;;;4955955;28;19970;-66
2022/11/30 05:41:53;;;;;;;;;;;6.90;99.90;;;;;;4967268;28;19921;-62
2022/11/30 05:44:18;;;;;;;;;;;6.80;99.90;;;;;;4971105;28;19914;-63
2022/11/30 05:46:43;;;;;;;;;;;6.90;99.90;;;;;;4961771;28;19929;-63
2022/11/30 05:49:09;;;;;;;;;;;6.80;99.90;;;;;;4969102;28;19921;-63
2022/11/30 05:51:34;;;;;;;;;;;6.80;99.90;;;;;;4970821;28;19914;-64
2022/11/30 05:54:00;;;;;;;;;;;6.70;99.90;;;;;;4962368;28;19948;-63
2022/11/30 05:56:25;;;;;;;;;;;6.70;99.90;;;;;;4968769;28;21495;-63
2022/11/30 05:58:51;;;;;;;;;;;6.70;99.90;;;;;;4967460;28;20358;-64
2022/11/30 06:01:18;;;;;;;;;;;6.60;99.90;;;;;;4967094;28;19918;-63
2022/11/30 06:03:43;;;;;;;;;;;6.50;99.90;;;;;;4967135;28;19925;-62
2022/11/30 06:06:08;;;;;;;;;;;6.50;99.90;;;;;;4964765;28;20297;-63
2022/11/30 06:08:34;;;;;;;;;;;6.40;99.90;;;;;;4971575;28;19957;-63
2022/11/30 06:10:59;;;;;;;;;;;6.40;99.90;;;;;;4965636;28;19960;-63
2022/11/30 06:13:25;;;;;;;;;;;6.40;99.90;;;;;;4960676;28;19928;-63
2022/11/30 06:15:50;;;;;;;;;;;6.40;99.90;;;;;;4964977;28;20010;-67
2022/11/30 06:18:16;;;;;;;;;;;6.20;99.90;;;;;;4965481;28;19922;-63
2022/11/30 06:20:41;;;;;;;;;;;6.20;99.90;;;;;;4966057;28;19917;-63
2022/11/30 06:23:07;;;;;;;;;;;6.20;99.90;;;;;;4959527;28;19971;-63
2022/11/30 06:25:32;;;;;;;;;;;6.20;99.90;;;;;;4963864;28;19910;-63
2022/11/30 06:27:58;;;;;;;;;;;6.10;99.90;;;;;;4969334;28;19973;-63
2022/11/30 06:30:23;;;;;;;;;;;6.00;99.90;;;;;;4961989;28;19914;-63
2022/11/30 06:32:50;;;;;;;;;;;6.00;99.90;;;;;;4967597;28;19989;-62
2022/11/30 06:35:16;;;;;;;;;;;6.10;99.90;;;;;;4965426;28;19960;-63
2022/11/30 06:37:41;;;;;;;;;;;6.10;99.90;;;;;;4969217;28;19964;-63
2022/11/30 06:40:07;;;;;;;;;;;6.00;99.90;;;;;;4969344;28;19964;-64
2022/11/30 06:42:33;;;;;;;;;;;5.90;99.90;;;;;;4968388;28;19984;-64
2022/11/30 06:44:59;;;;;;;;;;;5.90;99.90;;;;;;4963453;28;20333;-63
2022/11/30 06:47:25;;;;;;;;;;;5.80;99.90;;;;;;4964916;28;19921;-64
2022/11/30 06:49:51;;;;;;;;;;;5.80;99.90;;;;;;4962428;28;19921;-64
2022/11/30 06:52:16;;;;;;;;;;;5.90;99.90;;;;;;4960189;28;19915;-63
2022/11/30 06:54:42;;;;;;;;;;;5.90;99.90;;;;;;4961056;28;19921;-63
2022/11/30 06:57:07;;;;;;;;;;;5.90;99.90;;;;;;4960132;28;19917;-63
2022/11/30 06:59:33;;;;;;;;;;;6.00;99.90;;;;;;4959093;28;20553;-63
2022/11/30 07:01:58;;;;;;;;;;;6.10;99.90;;;;;;4965762;28;19965;-63
2022/11/30 07:04:24;;;;;;;;;;;6.10;99.90;;;;;;4963074;28;19914;-63
2022/11/30 07:06:49;;;;;;;;;;;6.20;99.90;;;;;;4968179;28;19941;-64
2022/11/30 07:09:15;;;;;;;;;;;6.30;99.90;;;;;;4961493;28;19922;-63
2022/11/30 07:11:40;;;;;;;;;;;6.40;99.90;;;;;;4958770;28;19942;-63
2022/11/30 07:14:06;;;;;;;;;;;6.40;99.90;;;;;;4967785;28;19932;-63
2022/11/30 07:16:31;;;;;;;;;;;6.30;99.90;;;;;;4959919;28;19914;-63
2022/11/30 07:18:57;;;;;;;;;;;6.40;99.90;;;;;;4966844;28;19988;-63
2022/11/30 07:21:22;;;;;;;;;;;6.40;99.90;;;;;;4960899;28;19925;-63
2022/11/30 07:26:31;;;;;;;;;;;6.30;99.90;;;;;;4961273;28;19964;-63
2022/11/30 07:28:57;;;;;;;;;;;6.40;99.90;;;;;;4964562;28;20372;-63
2022/11/30 07:31:24;;;;;;;;;;;6.30;99.90;;;;;;4965303;28;19957;-63
2022/11/30 07:33:50;;;;;;;;;;;6.40;99.90;;;;;;4961826;28;20458;-63
2022/11/30 07:36:17;;;;;;;;;;;6.10;99.90;;;;;;4964370;28;19920;-63
2022/11/30 07:38:43;;;;;;;;;;;6.00;99.90;;;;;;4961688;28;20294;-63
2022/11/30 07:41:08;;;;;;;;;;;6.00;99.90;;;;;;4963799;28;19918;-63
2022/11/30 07:43:34;;;;;;;;;;;6.00;99.90;;;;;;4970064;28;19918;-63
2022/11/30 07:46:00;;;;;;;;;;;6.10;99.90;;;;;;4958027;28;19914;-63
2022/11/30 07:48:25;;;;;;;;;;;6.00;99.90;;;;;;4963672;28;20386;-63
2022/11/30 07:50:51;;;;;;;;;;;6.00;99.90;;;;;;4964811;28;20301;-63
2022/11/30 07:53:16;;;;;;;;;;;6.10;99.90;;;;;;4955531;28;20460;-63
2022/11/30 07:55:42;;;;;;;;;;;6.10;99.90;;;;;;4965797;28;19910;-62
2022/11/30 07:58:08;;;;;;;;;;;6.10;99.90;;;;;;4965061;28;19914;-62
2022/11/30 08:00:35;;;;;;;;;;;6.10;99.90;;;;;;4960983;28;19996;-62
2022/11/30 08:03:00;;;;;;;;;;;6.20;99.90;;;;;;4964494;28;19929;-62
2022/11/30 08:05:26;;;;;;;;;;;6.20;99.90;;;;;;4963653;28;19914;-62
2022/11/30 08:07:52;;;;;;;;;;;6.10;99.90;;;;;;4967864;28;19917;-62
2022/11/30 08:10:21;;;;;;;;;;;6.20;99.90;;;;;;4961925;28;20362;-62
2022/11/30 08:12:47;;;;;;;;;;;6.10;99.90;;;;;;4963289;28;19965;-62
2022/11/30 08:15:12;;;;;;;;;;;6.10;99.90;;;;;;4956500;28;19946;-62
2022/11/30 08:17:38;;;;;;;;;;;6.10;99.90;;;;;;4961190;28;20427;-62
2022/11/30 08:20:04;;;;;;;;;;;6.00;99.90;;;;;;4974711;28;19910;-62
2022/11/30 08:22:31;;;;;;;;;;;6.10;99.90;;;;;;4965145;28;19980;-62
2022/11/30 08:24:56;;;;;;;;;;;6.00;99.90;;;;;;4963039;28;20358;-62
2022/11/30 08:27:22;;;;;;;;;;;6.10;99.90;;;;;;4965450;28;19972;-63
2022/11/30 08:29:47;;;;;;;;;;;6.10;99.90;;;;;;4967804;28;20021;-62
2022/11/30 08:32:13;;;;;;;;;;;6.10;99.90;;;;;;4962505;28;19988;-62
2022/11/30 08:34:38;;;;;;;;;;;6.20;99.90;;;;;;4961784;28;19966;-62
2022/11/30 08:37:04;;;;;;;;;;;6.10;99.90;;;;;;4965307;28;20317;-62
2022/11/30 08:39:33;;;;;;;;;;;6.30;99.90;;;;;;4967691;28;19922;-63
2022/11/30 08:41:59;;;;;;;;;;;6.30;99.90;;;;;;4966014;28;19925;-62
2022/11/30 08:44:24;;;;;;;;;;;6.30;99.90;;;;;;4961861;28;19910;-62
2022/11/30 08:46:50;;;;;;;;;;;6.20;99.90;;;;;;4959025;28;19922;-63
2022/11/30 08:49:15;;;;;;;;;;;6.20;99.90;;;;;;4960329;28;19993;-63
2022/11/30 08:51:41;;;;;;;;;;;6.30;99.90;;;;;;4962389;28;19914;-63
2022/11/30 08:54:06;;;;;;;;;;;6.40;99.90;;;;;;4961190;28;20386;-62
2022/11/30 08:56:32;;;;;;;;;;;6.20;99.90;;;;;;4966526;28;19965;-62
2022/11/30 08:58:57;;;;;;;;;;;6.10;99.90;;;;;;4966397;28;19910;-62
2022/11/30 09:01:24;;;;;;;;;;;6.10;99.90;;;;;;4965539;28;19918;-63
2022/11/30 09:03:51;;;;;;;;;;;6.20;99.90;;;;;;4966020;28;20379;-62
2022/11/30 09:06:18;;;;;;;;;;;6.20;99.90;;;;;;4963588;28;20270;-62
2022/11/30 09:08:44;;;;;;;;;;;6.30;99.90;;;;;;4967841;28;19911;-63
2022/11/30 09:11:11;;;;;;;;;;;6.30;99.90;;;;;;4960216;28;20122;-63
2022/11/30 09:13:37;;;;;;;;;;;6.50;99.90;;;;;;4966868;28;19917;-63
2022/11/30 09:16:02;;;;;;;;;;;6.50;99.90;;;;;;4963184;28;19997;-63
2022/11/30 09:18:28;;;;;;;;;;;6.60;99.90;;;;;;4964277;28;19921;-63
2022/11/30 09:20:57;;;;;;;;;;;6.70;99.90;;;;;;4980334;28;19964;-63
2022/11/30 09:23:23;;;;;;;;;;;6.80;99.90;;;;;;4964837;28;20552;-63
2022/11/30 09:25:53;;;;;;;;;;;7.00;99.90;;;;;;4966777;28;20048;-63
2022/11/30 09:28:19;;;;;;;;;;;6.80;99.90;;;;;;4967525;28;19965;-63
2022/11/30 09:30:44;;;;;;;;;;;6.60;99.90;;;;;;4976895;28;19953;-63
2022/11/30 09:33:09;;;;;;;;;;;6.70;99.90;;;;;;4979210;28;19910;-64
2022/11/30 09:35:35;;;;;;;;;;;6.80;99.90;;;;;;4963679;28;20357;-64
2022/11/30 09:38:00;;;;;;;;;;;6.50;99.90;;;;;;4965860;28;19922;-64
2022/11/30 09:40:27;;;;;;;;;;;6.40;99.90;;;;;;4953691;28;19914;-62
2022/11/30 09:42:55;;;;;;;;;;;6.50;99.90;;;;;;4964054;28;20274;-62
2022/11/30 09:45:27;;;;;;;;;;;6.60;99.90;;;;;;4968998;28;20392;-62
2022/11/30 09:47:58;;;;;;;;;;;6.50;99.90;;;;;;4963923;28;19943;-62
2022/11/30 09:50:26;;;;;;;;;;;6.60;99.90;;;;;;4960458;28;19922;-62
2022/11/30 09:53:00;;;;;;;;;;;6.60;99.90;;;;;;4960885;28;19914;-62
2022/11/30 09:55:28;;;;;;;;;;;6.70;99.90;;;;;;4956232;28;19915;-63
2022/11/30 09:57:55;;;;;;;;;;;6.60;99.90;;;;;;4959073;28;20585;-63
2022/11/30 10:00:22;;;;;;;;;;;6.50;99.90;;;;;;4961605;28;19922;-63
2022/11/30 10:02:48;;;;;;;;;;;6.50;99.90;;;;;;4965202;28;19933;-63
2022/11/30 10:05:16;;;;;;;;;;;6.80;99.90;;;;;;4957545;28;19949;-63
2022/11/30 10:08:00;;;;;;;;;;;6.80;99.90;;;;;;4964440;28;19993;-63
2022/11/30 10:10:37;;;;;;;;;;;6.80;99.90;;;;;;4957867;28;19918;-63
2022/11/30 10:13:22;;;;;;;;;;;6.80;99.90;;;;;;4958275;28;19921;-62
2022/11/30 10:15:55;;;;;;;;;;;6.80;99.90;;;;;;4962040;28;19961;-63
2022/11/30 10:18:25;;;;;;;;;;;6.80;99.90;;;;;;4957162;28;19966;-63
2022/11/30 10:20:54;;;;;;;;;;;6.80;99.90;;;;;;4957179;28;19914;-64
2022/11/30 10:23:35;;;;;;;;;;;6.90;99.90;;;;;;4967425;28;19922;-64
2022/11/30 10:26:00;;;;;;;;;;;7.00;99.90;;;;;;4975099;28;20367;-64
2022/11/30 10:28:41;;;;;;;;;;;6.90;99.90;;;;;;4983041;28;19918;-64
2022/11/30 10:31:11;;;;;;;;;;;6.90;99.90;;;;;;4967521;28;19941;-62
2022/11/30 10:33:50;;;;;;;;;;;6.90;99.90;;;;;;4971847;28;20440;-62
2022/11/30 10:36:36;;;;;;;;;;;7.00;99.90;;;;;;4964332;28;19918;-62
2022/11/30 10:39:04;;;;;;;;;;;7.10;99.90;;;;;;4967069;28;19914;-63
2022/11/30 10:41:32;;;;;;;;;;;7.10;99.90;;;;;;4963902;28;19922;-62
2022/11/30 10:44:01;;;;;;;;;;;7.10;99.90;;;;;;4967203;28;19914;-63
2022/11/30 10:46:27;;;;;;;;;;;7.10;99.90;;;;;;4974427;28;19949;-63
2022/11/30 10:48:55;;;;;;;;;;;7.50;99.90;;;;;;4965424;28;20016;-63
2022/11/30 10:51:21;;;;;;;;;;;7.30;99.90;;;;;;4962994;28;21527;-63
2022/11/30 10:53:46;;;;;;;;;;;7.20;99.90;;;;;;4966702;28;19921;-62
2022/11/30 10:56:13;;;;;;;;;;;7.20;99.90;;;;;;4965050;28;19914;-63
2022/11/30 10:58:43;;;;;;;;;;;7.30;99.90;;;;;;4966938;28;19914;-63
2022/11/30 11:01:10;;;;;;;;;;;7.20;99.90;;;;;;4964538;28;19926;-63
2022/11/30 11:03:36;;;;;;;;;;;7.30;99.90;;;;;;4960004;28;20493;-63
2022/11/30 11:06:18;;;;;;;;;;;7.30;99.90;;;;;;4956621;28;20227;-63
2022/11/30 11:08:45;;;;;;;;;;;7.20;99.90;;;;;;4955768;28;19910;-63
2022/11/30 11:11:30;;;;;;;;;;;7.30;99.90;;;;;;4958727;28;19914;-63
2022/11/30 11:14:12;;;;;;;;;;;7.30;99.90;;;;;;4965512;28;20321;-63
2022/11/30 11:16:57;;;;;;;;;;;7.30;99.90;;;;;;4962981;28;19914;-63
2022/11/30 11:19:29;;;;;;;;;;;7.30;99.90;;;;;;4962065;28;19928;-63
2022/11/30 11:21:54;;;;;;;;;;;7.30;99.90;;;;;;4967529;28;19925;-63
2022/11/30 11:24:24;;;;;;;;;;;7.30;99.90;;;;;;4969018;28;19958;-63
2022/11/30 11:26:50;;;;;;;;;;;7.40;99.90;;;;;;4982322;28;20425;-64
2022/11/30 11:29:30;;;;;;;;;;;7.30;99.90;;;;;;4959988;28;19924;-64
2022/11/30 11:32:14;;;;;;;;;;;7.30;99.90;;;;;;4963693;28;19950;-64
2022/11/30 11:34:40;;;;;;;;;;;7.40;99.90;;;;;;4958878;28;20340;-64
2022/11/30 11:37:27;;;;;;;;;;;7.50;99.90;;;;;;4965639;28;20013;-64
2022/11/30 11:40:05;;;;;;;;;;;7.60;99.90;;;;;;4950383;28;20452;-64
2022/11/30 11:42:33;;;;;;;;;;;7.70;99.90;;;;;;4961036;28;20335;-64
2022/11/30 11:45:00;;;;;;;;;;;7.70;99.90;;;;;;4967888;28;19922;-64
2022/11/30 11:47:36;;;;;;;;;;;7.80;99.90;;;;;;4964737;28;20325;-64
2022/11/30 11:50:04;;;;;;;;;;;7.80;99.90;;;;;;4964370;28;20277;-64
2022/11/30 11:52:29;;;;;;;;;;;7.60;99.90;;;;;;4960115;28;19937;-64
2022/11/30 11:54:57;;;;;;;;;;;7.60;99.90;;;;;;4970151;28;19914;-64
2022/11/30 11:57:30;;;;;;;;;;;7.60;99.90;;;;;;4965525;28;19914;-64
2022/11/30 11:59:58;;;;;;;;;;;7.50;99.90;;;;;;4963320;28;20150;-64
2022/11/30 12:02:36;;;;;;;;;;;7.50;99.90;;;;;;4961627;28;19958;-64
2022/11/30 12:05:06;;;;;;;;;;;7.40;99.90;;;;;;4971729;28;19925;-64
2022/11/30 12:07:44;;;;;;;;;;;7.50;99.90;;;;;;4960806;28;19915;-64
2022/11/30 12:10:28;;;;;;;;;;;7.70;99.90;;;;;;4952853;28;19918;-64
2022/11/30 12:12:54;;;;;;;;;;;7.60;99.90;;;;;;4965056;28;20001;-64
2022/11/30 12:15:24;;;;;;;;;;;7.70;99.90;;;;;;4964419;28;20000;-64
2022/11/30 12:17:49;;;;;;;;;;;7.80;99.90;;;;;;4959818;28;19922;-64
2022/11/30 12:20:33;;;;;;;;;;;7.70;99.90;;;;;;4973873;28;20181;-64
2022/11/30 12:23:37;;;;;;;;;;;7.70;99.90;;;;;;4958889;28;19915;-64
2022/11/30 12:26:12;;;;;;;;;;;7.60;99.90;;;;;;4929464;29;19942;-64
2022/11/30 12:28:46;;;;;;;;;;;7.50;99.90;;;;;;4943664;29;19969;-64
2022/11/30 12:31:16;;;;;;;;;;;7.50;99.90;;;;;;4947990;28;20373;-61
2022/11/30 12:34:00;;;;;;;;;;;7.40;99.90;;;;;;4958430;28;19949;-61
2022/11/30 12:36:34;;;;;;;;;;;7.30;99.90;;;;;;4955537;28;19917;-61
2022/11/30 12:39:06;;;;;;;;;;;7.30;99.90;;;;;;4957939;28;20020;-62
2022/11/30 12:41:48;;;;;;;;;;;7.50;99.90;;;;;;4966691;28;19918;-62
2022/11/30 12:44:32;;;;;;;;;;;7.50;99.90;;;;;;4969877;28;20013;-62
2022/11/30 12:47:15;;;;;;;;;;;7.50;99.90;;;;;;4956279;28;20321;-62
2022/11/30 12:49:56;;;;;;;;;;;7.70;99.90;;;;;;4965043;28;20023;-62
2022/11/30 12:52:54;;;;;;;;;;;7.70;99.90;;;;;;4955700;28;19926;-62
2022/11/30 12:55:27;;;;;;;;;;;7.80;99.90;;;;;;4946825;28;19937;-62
2022/11/30 12:58:02;;;;;;;;;;;8.00;99.90;;;;;;4967280;28;19964;-62
2022/11/30 13:00:34;;;;;;;;;;;7.70;99.90;;;;;;4957184;28;19984;-62
2022/11/30 13:03:18;;;;;;;;;;;7.70;99.90;;;;;;4962819;28;20008;-62
2022/11/30 13:05:47;;;;;;;;;;;7.50;99.90;;;;;;4980426;28;20228;-62
2022/11/30 13:08:15;;;;;;;;;;;7.50;99.90;;;;;;4963804;28;19922;-63
2022/11/30 13:10:45;;;;;;;;;;;7.60;99.90;;;;;;4978560;28;20363;-63
2022/11/30 13:13:12;;;;;;;;;;;7.70;99.90;;;;;;4959707;28;19919;-63
2022/11/30 13:15:38;;;;;;;;;;;7.60;99.90;;;;;;4961167;28;20330;-63
2022/11/30 13:18:05;;;;;;;;;;;7.50;99.90;;;;;;4955733;28;19979;-63
2022/11/30 13:20:30;;;;;;;;;;;7.60;99.90;;;;;;4974882;28;19980;-62
2022/11/30 13:23:19;;;;;;;;;;;7.50;99.90;;;;;;4958708;28;19922;-63
2022/11/30 13:25:54;;;;;;;;;;;7.60;99.90;;;;;;4963744;28;20267;-64
2022/11/30 13:28:55;;;;;;;;;;;7.70;99.90;;;;;;4966014;28;20542;-64
2022/11/30 13:31:27;;;;;;;;;;;7.60;99.90;;;;;;4944796;28;19929;-64
2022/11/30 13:33:52;;;;;;;;;;;7.70;99.90;;;;;;4959892;28;20207;-64
2022/11/30 13:36:37;;;;;;;;;;;7.70;99.90;;;;;;4960191;28;19968;-64
2022/11/30 13:39:19;;;;;;;;;;;7.70;99.90;;;;;;4959719;28;19918;-64
2022/11/30 13:41:46;;;;;;;;;;;7.60;99.90;;;;;;4962347;28;19922;-64
2022/11/30 13:44:20;;;;;;;;;;;7.60;99.90;;;;;;4961289;28;19922;-64
2022/11/30 13:46:49;;;;;;;;;;;7.70;99.90;;;;;;4956998;28;20019;-64
2022/11/30 13:49:15;;;;;;;;;;;7.60;99.90;;;;;;4962067;28;19925;-64
2022/11/30 13:51:41;;;;;;;;;;;7.60;99.90;;;;;;4976531;28;19915;-64
2022/11/30 13:54:25;;;;;;;;;;;7.60;99.90;;;;;;4957590;28;19924;-64
2022/11/30 13:56:50;;;;;;;;;;;7.60;99.90;;;;;;4959610;28;19917;-64
2022/11/30 13:59:22;;;;;;;;;;;7.50;99.90;;;;;;4958395;28;19918;-64
2022/11/30 14:01:48;;;;;;;;;;;7.50;99.90;;;;;;4964321;28;19922;-64
2022/11/30 14:04:13;;;;;;;;;;;7.90;99.90;;;;;;4967115;28;19950;-64
2022/11/30 14:06:42;;;;;;;;;;;7.70;99.90;;;;;;4968078;28;20392;-63
2022/11/30 14:09:36;;;;;;;;;;;7.50;99.90;;;;;;4951601;28;19940;-64
2022/11/30 14:12:20;;;;;;;;;;;7.50;99.90;;;;;;4965335;28;19949;-63
2022/11/30 14:14:47;;;;;;;;;;;7.50;99.90;;;;;;4963469;28;20001;-63
2022/11/30 14:17:16;;;;;;;;;;;7.40;99.90;;;;;;4966822;28;20408;-63
2022/11/30 14:19:44;;;;;;;;;;;7.30;99.90;;;;;;4961224;28;19915;-64
2022/11/30 14:22:10;;;;;;;;;;;7.20;99.90;;;;;;4970945;28;20385;-64
2022/11/30 14:24:36;;;;;;;;;;;7.20;99.90;;;;;;4968819;28;20385;-64
2022/11/30 14:27:02;;;;;;;;;;;7.20;99.90;;;;;;4960495;28;20040;-64
2022/11/30 14:29:30;;;;;;;;;;;7.30;99.90;;;;;;4961469;28;20274;-63
2022/11/30 14:31:59;;;;;;;;;;;7.40;99.90;;;;;;4958338;28;19918;-63
2022/11/30 14:34:26;;;;;;;;;;;7.30;99.90;;;;;;4958159;28;19968;-64
2022/11/30 14:36:56;;;;;;;;;;;7.40;99.90;;;;;;4964158;28;19914;-64
2022/11/30 14:39:26;;;;;;;;;;;7.50;99.90;;;;;;4958728;28;19918;-64
2022/11/30 14:41:52;;;;;;;;;;;7.40;99.90;;;;;;4970296;28;20416;-64